sensor_id;sensor_type;location;lat;lon;timestamp;pressure;altitude;pressure_sealevel;temperature;humidity
2405;BME280;1213;43.206;27.922;2024-02-21T00:01:36;102205.44;;;6.37;100.00
2405;BME280;1213;43.206;27.922;2024-02-21T00:04:01;102209.22;;;6.25;100.00
2405;BME280;1213;43.206;27.922;2024-02-21T00:06:27;102210.13;;;6.24;100.00
2405;BME280;1213;43.206;27.922;2024-02-21T00:08:55;102208.44;;;6.22;100.00
2405;BME280;1213;43.206;27.922;2024-02-21T00:11:20;102204.34;;;6.11;100.00
2405;BME280;1213;43.206;27.922;2024-02-21T00:13:48;102194.66;;;6.17;100.00
2405;BME280;1213;43.206;27.922;2024-02-21T00:16:13;102203.72;;;6.02;100.00
2405;BME280;1213;43.206;27.922;2024-02-21T00:18:41;102195.97;;;5.99;100.00
2405;BME280;1213;43.206;27.922;2024-02-21T00:21:07;102191.47;;;6.04;100.00
2405;BME280;1213;43.206;27.922;2024-02-21T00:23:34;102193.22;;;6.05;100.00
2405;BME280;1213;43.206;27.922;2024-02-21T00:25:59;102200.34;;;5.97;100.00
2405;BME280;1213;43.206;27.922;2024-02-21T00:28:26;102200.84;;;6.13;100.00
2405;BME280;1213;43.206;27.922;2024-02-21T00:30:51;102195.81;;;6.05;100.00
2405;BME280;1213;43.206;27.922;2024-02-21T00:33:19;102192.97;;;6.14;100.00
2405;BME280;1213;43.206;27.922;2024-02-21T00:35:46;102191.09;;;6.21;100.00
2405;BME280;1213;43.206;27.922;2024-02-21T00:38:11;102197.41;;;6.10;100.00
2405;BME280;1213;43.206;27.922;2024-02-21T00:40:36;102198.78;;;5.88;100.00
2405;BME280;1213;43.206;27.922;2024-02-21T00:43:02;102195.28;;;5.91;100.00
2405;BME280;1213;43.206;27.922;2024-02-21T00:45:30;102199.34;;;6.02;100.00
2405;BME280;1213;43.206;27.922;2024-02-21T00:47:55;102196.59;;;6.08;100.00
2405;BME280;1213;43.206;27.922;2024-02-21T00:50:21;102187.00;;;6.09;100.00
2405;BME280;1213;43.206;27.922;2024-02-21T00:52:46;102199.91;;;6.15;100.00
2405;BME280;1213;43.206;27.922;2024-02-21T00:55:13;102196.88;;;5.98;100.00
2405;BME280;1213;43.206;27.922;2024-02-21T00:57:40;102192.41;;;6.01;100.00
2405;BME280;1213;43.206;27.922;2024-02-21T01:00:06;102194.09;;;6.04;100.00
2405;BME280;1213;43.206;27.922;2024-02-21T01:02:34;102198.53;;;6.00;100.00
2405;BME280;1213;43.206;27.922;2024-02-21T01:05:00;102199.44;;;5.99;100.00
2405;BME280;1213;43.206;27.922;2024-02-21T01:07:27;102198.75;;;5.91;100.00
2405;BME280;1213;43.206;27.922;2024-02-21T01:09:52;102193.56;;;5.88;100.00
2405;BME280;1213;43.206;27.922;2024-02-21T01:12:18;102190.19;;;5.84;100.00
2405;BME280;1213;43.206;27.922;2024-02-21T01:14:44;102190.19;;;5.84;100.00
2405;BME280;1213;43.206;27.922;2024-02-21T01:17:11;102181.72;;;5.75;100.00
2405;BME280;1213;43.206;27.922;2024-02-21T01:19:36;102178.19;;;5.77;100.00
2405;BME280;1213;43.206;27.922;2024-02-21T01:22:04;102174.59;;;5.81;100.00
2405;BME280;1213;43.206;27.922;2024-02-21T01:24:29;102182.63;;;5.72;100.00
2405;BME280;1213;43.206;27.922;2024-02-21T01:26:55;102177.19;;;5.83;100.00
2405;BME280;1213;43.206;27.922;2024-02-21T01:29:21;102168.69;;;5.75;100.00
2405;BME280;1213;43.206;27.922;2024-02-21T01:31:46;102172.03;;;5.80;100.00
2405;BME280;1213;43.206;27.922;2024-02-21T01:34:13;102166.63;;;5.88;100.00
2405;BME280;1213;43.206;27.922;2024-02-21T01:36:38;102169.38;;;5.81;100.00
2405;BME280;1213;43.206;27.922;2024-02-21T01:39:03;102170.22;;;5.83;100.00
2405;BME280;1213;43.206;27.922;2024-02-21T01:41:32;102170.25;;;5.82;100.00
2405;BME280;1213;43.206;27.922;2024-02-21T01:43:58;102170.94;;;5.90;100.00
2405;BME280;1213;43.206;27.922;2024-02-21T01:46:24;102169.47;;;5.78;100.00
2405;BME280;1213;43.206;27.922;2024-02-21T01:48:55;102170.38;;;5.77;100.00
2405;BME280;1213;43.206;27.922;2024-02-21T01:51:21;102177.03;;;5.89;100.00
2405;BME280;1213;43.206;27.922;2024-02-21T01:53:46;102175.25;;;5.93;100.00
2405;BME280;1213;43.206;27.922;2024-02-21T01:56:15;102174.34;;;5.94;100.00
2405;BME280;1213;43.206;27.922;2024-02-21T01:58:42;102176.84;;;5.98;100.00
2405;BME280;1213;43.206;27.922;2024-02-21T02:01:08;102172.69;;;5.88;100.00
2405;BME280;1213;43.206;27.922;2024-02-21T02:03:35;102171.88;;;5.86;100.00
2405;BME280;1213;43.206;27.922;2024-02-21T02:06:00;102167.31;;;5.97;100.00
2405;BME280;1213;43.206;27.922;2024-02-21T02:08:31;102175.81;;;6.04;100.00
2405;BME280;1213;43.206;27.922;2024-02-21T02:10:57;102169.03;;;5.98;100.00
2405;BME280;1213;43.206;27.922;2024-02-21T02:13:23;102171.81;;;5.89;100.00
2405;BME280;1213;43.206;27.922;2024-02-21T02:15:49;102164.56;;;6.02;100.00
2405;BME280;1213;43.206;27.922;2024-02-21T02:18:15;102167.00;;;6.09;100.00
2405;BME280;1213;43.206;27.922;2024-02-21T02:20:41;102167.97;;;6.05;100.00
2405;BME280;1213;43.206;27.922;2024-02-21T02:23:29;102171.22;;;6.15;100.00
2405;BME280;1213;43.206;27.922;2024-02-21T02:25:54;102174.97;;;6.03;100.00
2405;BME280;1213;43.206;27.922;2024-02-21T02:28:21;102173.41;;;5.96;100.00
2405;BME280;1213;43.206;27.922;2024-02-21T02:30:46;102172.16;;;6.11;100.00
2405;BME280;1213;43.206;27.922;2024-02-21T02:33:15;102170.22;;;6.19;100.00
2405;BME280;1213;43.206;27.922;2024-02-21T02:35:42;102161.78;;;6.09;100.00
2405;BME280;1213;43.206;27.922;2024-02-21T02:38:08;102177.19;;;6.20;100.00
2405;BME280;1213;43.206;27.922;2024-02-21T02:40:35;102165.91;;;6.18;100.00
2405;BME280;1213;43.206;27.922;2024-02-21T02:43:01;102160.78;;;6.15;100.00
2405;BME280;1213;43.206;27.922;2024-02-21T02:45:26;102169.56;;;6.13;100.00
2405;BME280;1213;43.206;27.922;2024-02-21T02:47:52;102165.56;;;5.98;100.00
2405;BME280;1213;43.206;27.922;2024-02-21T02:50:22;102178.72;;;5.93;100.00
2405;BME280;1213;43.206;27.922;2024-02-21T02:52:48;102170.09;;;5.90;100.00
2405;BME280;1213;43.206;27.922;2024-02-21T02:55:13;102177.03;;;5.91;100.00
2405;BME280;1213;43.206;27.922;2024-02-21T02:57:39;102182.41;;;5.81;100.00
2405;BME280;1213;43.206;27.922;2024-02-21T03:00:07;102181.91;;;5.67;100.00
2405;BME280;1213;43.206;27.922;2024-02-21T03:02:32;102182.19;;;5.55;100.00
2405;BME280;1213;43.206;27.922;2024-02-21T03:04:58;102180.59;;;5.48;100.00
2405;BME280;1213;43.206;27.922;2024-02-21T03:07:25;102183.41;;;5.39;100.00
2405;BME280;1213;43.206;27.922;2024-02-21T03:09:50;102182.66;;;5.34;100.00
2405;BME280;1213;43.206;27.922;2024-02-21T03:12:16;102180.03;;;5.34;100.00
2405;BME280;1213;43.206;27.922;2024-02-21T03:14:50;102179.44;;;5.22;100.00
2405;BME280;1213;43.206;27.922;2024-02-21T03:17:15;102181.00;;;5.29;100.00
2405;BME280;1213;43.206;27.922;2024-02-21T03:19:40;102185.50;;;5.23;100.00
2405;BME280;1213;43.206;27.922;2024-02-21T03:22:07;102180.16;;;5.27;100.00
2405;BME280;1213;43.206;27.922;2024-02-21T03:24:36;102172.31;;;5.31;100.00
2405;BME280;1213;43.206;27.922;2024-02-21T03:27:07;102175.81;;;5.29;100.00
2405;BME280;1213;43.206;27.922;2024-02-21T03:29:33;102176.72;;;5.27;100.00
2405;BME280;1213;43.206;27.922;2024-02-21T03:31:59;102184.81;;;5.13;100.00
2405;BME280;1213;43.206;27.922;2024-02-21T03:34:25;102182.94;;;5.20;100.00
2405;BME280;1213;43.206;27.922;2024-02-21T03:36:51;102184.75;;;5.16;100.00
2405;BME280;1213;43.206;27.922;2024-02-21T03:39:20;102182.13;;;5.18;100.00
2405;BME280;1213;43.206;27.922;2024-02-21T03:41:46;102184.56;;;5.25;100.00
2405;BME280;1213;43.206;27.922;2024-02-21T03:44:12;102179.25;;;5.30;100.00
2405;BME280;1213;43.206;27.922;2024-02-21T03:46:37;102172.50;;;5.21;100.00
2405;BME280;1213;43.206;27.922;2024-02-21T03:49:03;102171.50;;;5.27;100.00
2405;BME280;1213;43.206;27.922;2024-02-21T03:51:28;102173.00;;;5.39;100.00
2405;BME280;1213;43.206;27.922;2024-02-21T03:53:53;102173.88;;;5.38;100.00
2405;BME280;1213;43.206;27.922;2024-02-21T03:56:19;102169.00;;;5.22;100.00
2405;BME280;1213;43.206;27.922;2024-02-21T03:58:44;102172.34;;;5.27;100.00
2405;BME280;1213;43.206;27.922;2024-02-21T04:01:10;102173.97;;;5.33;100.00
2405;BME280;1213;43.206;27.922;2024-02-21T04:03:37;102171.28;;;5.38;100.00
2405;BME280;1213;43.206;27.922;2024-02-21T04:06:03;102172.19;;;5.35;100.00
2405;BME280;1213;43.206;27.922;2024-02-21T04:08:28;102172.34;;;5.27;100.00
2405;BME280;1213;43.206;27.922;2024-02-21T04:10:54;102173.91;;;5.36;100.00
2405;BME280;1213;43.206;27.922;2024-02-21T04:13:19;102174.91;;;5.31;100.00
2405;BME280;1213;43.206;27.922;2024-02-21T04:15:44;102168.69;;;5.36;100.00
2405;BME280;1213;43.206;27.922;2024-02-21T04:18:10;102173.81;;;5.41;100.00
2405;BME280;1213;43.206;27.922;2024-02-21T04:20:35;102172.22;;;5.34;100.00
2405;BME280;1213;43.206;27.922;2024-02-21T04:23:01;102181.63;;;5.41;100.00
2405;BME280;1213;43.206;27.922;2024-02-21T04:25:26;102175.59;;;5.39;100.00
2405;BME280;1213;43.206;27.922;2024-02-21T04:27:52;102168.59;;;5.41;100.00
2405;BME280;1213;43.206;27.922;2024-02-21T04:30:20;102172.22;;;5.34;100.00
2405;BME280;1213;43.206;27.922;2024-02-21T04:32:45;102171.28;;;5.38;100.00
2405;BME280;1213;43.206;27.922;2024-02-21T04:35:10;102170.22;;;5.46;100.00
2405;BME280;1213;43.206;27.922;2024-02-21T04:37:36;102167.53;;;5.49;100.00
2405;BME280;1213;43.206;27.922;2024-02-21T04:40:01;102175.59;;;5.39;100.00
2405;BME280;1213;43.206;27.922;2024-02-21T04:42:27;102176.38;;;5.42;100.00
2405;BME280;1213;43.206;27.922;2024-02-21T04:44:54;102175.72;;;5.33;100.00
2405;BME280;1213;43.206;27.922;2024-02-21T04:47:20;102187.72;;;5.40;100.00
2405;BME280;1213;43.206;27.922;2024-02-21T04:49:45;102180.81;;;5.39;100.00
2405;BME280;1213;43.206;27.922;2024-02-21T04:52:11;102191.28;;;5.36;100.00
2405;BME280;1213;43.206;27.922;2024-02-21T04:54:37;102189.59;;;5.33;100.00
2405;BME280;1213;43.206;27.922;2024-02-21T04:57:02;102195.81;;;5.27;100.00
2405;BME280;1213;43.206;27.922;2024-02-21T04:59:28;102197.50;;;5.28;100.00
2405;BME280;1213;43.206;27.922;2024-02-21T05:01:53;102195.81;;;5.27;100.00
2405;BME280;1213;43.206;27.922;2024-02-21T05:04:18;102193.19;;;5.27;100.00
2405;BME280;1213;43.206;27.922;2024-02-21T05:06:44;102188.88;;;5.26;100.00
2405;BME280;1213;43.206;27.922;2024-02-21T05:09:09;102180.31;;;5.21;100.00
2405;BME280;1213;43.206;27.922;2024-02-21T05:11:36;102174.22;;;5.21;100.00
2405;BME280;1213;43.206;27.922;2024-02-21T05:14:02;102183.84;;;5.19;100.00
2405;BME280;1213;43.206;27.922;2024-02-21T05:16:29;102186.22;;;5.28;100.00
2405;BME280;1213;43.206;27.922;2024-02-21T05:18:54;102196.66;;;5.29;100.00
2405;BME280;1213;43.206;27.922;2024-02-21T05:21:22;102204.38;;;5.33;100.00
2405;BME280;1213;43.206;27.922;2024-02-21T05:23:48;102206.91;;;5.36;100.00
2405;BME280;1213;43.206;27.922;2024-02-21T05:26:20;102212.94;;;5.39;100.00
2405;BME280;1213;43.206;27.922;2024-02-21T05:28:46;102217.94;;;5.48;100.00
2405;BME280;1213;43.206;27.922;2024-02-21T05:31:12;102216.22;;;5.47;100.00
2405;BME280;1213;43.206;27.922;2024-02-21T05:33:37;102213.47;;;5.55;100.00
2405;BME280;1213;43.206;27.922;2024-02-21T05:36:03;102215.97;;;5.58;100.00
2405;BME280;1213;43.206;27.922;2024-02-21T05:38:28;102216.78;;;5.62;100.00
2405;BME280;1213;43.206;27.922;2024-02-21T05:40:54;102218.53;;;5.61;100.00
2405;BME280;1213;43.206;27.922;2024-02-21T05:43:19;102213.19;;;5.67;100.00
2405;BME280;1213;43.206;27.922;2024-02-21T05:45:46;102219.41;;;5.62;100.00
2405;BME280;1213;43.206;27.922;2024-02-21T05:48:11;102216.66;;;5.68;100.00
2405;BME280;1213;43.206;27.922;2024-02-21T05:50:37;102219.19;;;5.71;100.00
2405;BME280;1213;43.206;27.922;2024-02-21T05:53:03;102226.16;;;5.70;100.00
2405;BME280;1213;43.206;27.922;2024-02-21T05:55:28;102234.75;;;5.74;100.00
2405;BME280;1213;43.206;27.922;2024-02-21T05:57:54;102233.22;;;5.65;100.00
2405;BME280;1213;43.206;27.922;2024-02-21T06:00:20;102231.16;;;5.79;100.00
2405;BME280;1213;43.206;27.922;2024-02-21T06:02:45;102232.06;;;5.78;100.00
2405;BME280;1213;43.206;27.922;2024-02-21T06:05:11;102239.78;;;5.81;100.00
2405;BME280;1213;43.206;27.922;2024-02-21T06:07:36;102248.31;;;5.90;100.00
2405;BME280;1213;43.206;27.922;2024-02-21T06:10:03;102251.97;;;5.82;100.00
2405;BME280;1213;43.206;27.922;2024-02-21T06:12:29;102249.34;;;5.82;100.00
2405;BME280;1213;43.206;27.922;2024-02-21T06:14:54;102249.22;;;5.87;100.00
2405;BME280;1213;43.206;27.922;2024-02-21T06:17:20;102255.38;;;5.84;100.00
2405;BME280;1213;43.206;27.922;2024-02-21T06:19:45;102253.41;;;5.96;100.00
2405;BME280;1213;43.206;27.922;2024-02-21T06:22:11;102255.06;;;6.00;100.00
2405;BME280;1213;43.206;27.922;2024-02-21T06:24:37;102254.06;;;6.05;100.00
2405;BME280;1213;43.206;27.922;2024-02-21T06:27:06;102245.41;;;6.05;100.00
2405;BME280;1213;43.206;27.922;2024-02-21T06:29:32;102248.81;;;6.07;100.00
2405;BME280;1213;43.206;27.922;2024-02-21T06:31:58;102255.47;;;6.20;100.00
2405;BME280;1213;43.206;27.922;2024-02-21T06:34:24;102250.38;;;6.14;100.00
2405;BME280;1213;43.206;27.922;2024-02-21T06:36:50;102253.72;;;6.21;100.00
2405;BME280;1213;43.206;27.922;2024-02-21T06:39:16;102253.63;;;6.24;100.00
2405;BME280;1213;43.206;27.922;2024-02-21T06:41:41;102249.16;;;6.29;100.00
2405;BME280;1213;43.206;27.922;2024-02-21T06:44:07;102250.88;;;6.30;100.00
2405;BME280;1213;43.206;27.922;2024-02-21T06:46:32;102239.44;;;6.35;100.00
2405;BME280;1213;43.206;27.922;2024-02-21T06:48:59;102242.03;;;6.35;100.00
2405;BME280;1213;43.206;27.922;2024-02-21T06:51:25;102236.44;;;6.51;100.00
2405;BME280;1213;43.206;27.922;2024-02-21T06:53:51;102232.97;;;6.50;100.00
2405;BME280;1213;43.206;27.922;2024-02-21T06:56:16;102233.47;;;6.63;100.00
2405;BME280;1213;43.206;27.922;2024-02-21T06:58:42;102229.66;;;6.76;100.00
2405;BME280;1213;43.206;27.922;2024-02-21T07:01:09;102225.63;;;6.97;100.00
2405;BME280;1213;43.206;27.922;2024-02-21T07:03:35;102227.19;;;7.03;100.00
2405;BME280;1213;43.206;27.922;2024-02-21T07:06:00;102227.06;;;7.07;100.00
2405;BME280;1213;43.206;27.922;2024-02-21T07:08:26;102230.69;;;7.03;100.00
2405;BME280;1213;43.206;27.922;2024-02-21T07:10:51;102239.38;;;7.04;100.00
2405;BME280;1213;43.206;27.922;2024-02-21T07:13:17;102226.78;;;7.18;100.00
2405;BME280;1213;43.206;27.922;2024-02-21T07:15:43;102235.94;;;7.31;100.00
2405;BME280;1213;43.206;27.922;2024-02-21T07:18:08;102229.56;;;7.41;100.00
2405;BME280;1213;43.206;27.922;2024-02-21T07:20:34;102225.09;;;7.45;100.00
2405;BME280;1213;43.206;27.922;2024-02-21T07:23:02;102219.44;;;7.59;100.00
2405;BME280;1213;43.206;27.922;2024-02-21T07:25:27;102227.63;;;7.76;100.00
2405;BME280;1213;43.206;27.922;2024-02-21T07:27:53;102227.69;;;8.02;100.00
2405;BME280;1213;43.206;27.922;2024-02-21T07:30:18;102223.88;;;7.85;100.00
2405;BME280;1213;43.206;27.922;2024-02-21T07:32:44;102227.44;;;7.82;100.00
2405;BME280;1213;43.206;27.922;2024-02-21T07:35:09;102229.38;;;8.03;100.00
2405;BME280;1213;43.206;27.922;2024-02-21T07:37:38;102232.50;;;8.15;100.00
2405;BME280;1213;43.206;27.922;2024-02-21T07:40:05;102236.44;;;8.28;100.00
2405;BME280;1213;43.206;27.922;2024-02-21T07:42:31;102237.97;;;8.35;100.00
2405;BME280;1213;43.206;27.922;2024-02-21T07:44:56;102236.31;;;8.32;100.00
2405;BME280;1213;43.206;27.922;2024-02-21T07:47:22;102238.22;;;8.27;100.00
2405;BME280;1213;43.206;27.922;2024-02-21T07:49:47;102232.22;;;8.50;100.00
2405;BME280;1213;43.206;27.922;2024-02-21T07:52:14;102232.63;;;8.65;100.00
2405;BME280;1213;43.206;27.922;2024-02-21T07:54:40;102239.22;;;8.50;100.00
2405;BME280;1213;43.206;27.922;2024-02-21T07:57:06;102248.91;;;8.48;100.00
2405;BME280;1213;43.206;27.922;2024-02-21T07:59:32;102254.28;;;8.43;100.00
2405;BME280;1213;43.206;27.922;2024-02-21T08:01:58;102252.94;;;8.30;100.00
2405;BME280;1213;43.206;27.922;2024-02-21T08:04:24;102252.09;;;8.29;100.00
2405;BME280;1213;43.206;27.922;2024-02-21T08:06:53;102251.03;;;8.37;100.00
2405;BME280;1213;43.206;27.922;2024-02-21T08:09:23;102239.97;;;8.53;100.00
2405;BME280;1213;43.206;27.922;2024-02-21T08:11:49;102247.47;;;8.64;100.00
2405;BME280;1213;43.206;27.922;2024-02-21T08:14:14;102238.28;;;8.77;100.00
2405;BME280;1213;43.206;27.922;2024-02-21T08:16:41;102229.72;;;8.97;100.00
2405;BME280;1213;43.206;27.922;2024-02-21T08:19:07;102233.38;;;9.16;100.00
2405;BME280;1213;43.206;27.922;2024-02-21T08:21:32;102235.31;;;9.35;100.00
2405;BME280;1213;43.206;27.922;2024-02-21T08:23:58;102240.97;;;9.24;100.00
2405;BME280;1213;43.206;27.922;2024-02-21T08:26:23;102242.03;;;9.18;100.00
2405;BME280;1213;43.206;27.922;2024-02-21T08:28:50;102235.59;;;9.27;100.00
2405;BME280;1213;43.206;27.922;2024-02-21T08:31:19;102232.06;;;9.28;100.00
2405;BME280;1213;43.206;27.922;2024-02-21T08:33:45;102231.59;;;9.40;100.00
2405;BME280;1213;43.206;27.922;2024-02-21T08:36:19;102225.97;;;9.28;100.00
2405;BME280;1213;43.206;27.922;2024-02-21T08:38:48;102229.38;;;9.53;100.00
2405;BME280;1213;43.206;27.922;2024-02-21T08:41:14;102228.34;;;9.57;100.00
2405;BME280;1213;43.206;27.922;2024-02-21T08:43:39;102228.66;;;9.93;100.00
2405;BME280;1213;43.206;27.922;2024-02-21T08:46:07;102236.06;;;10.06;100.00
2405;BME280;1213;43.206;27.922;2024-02-21T08:48:33;102233.16;;;10.12;100.00
2405;BME280;1213;43.206;27.922;2024-02-21T08:50:58;102232.31;;;10.11;100.00
2405;BME280;1213;43.206;27.922;2024-02-21T08:53:24;102226.34;;;9.86;100.00
2405;BME280;1213;43.206;27.922;2024-02-21T08:55:50;102238.00;;;9.79;100.00
2405;BME280;1213;43.206;27.922;2024-02-21T08:58:15;102225.81;;;9.99;100.00
2405;BME280;1213;43.206;27.922;2024-02-21T09:00:40;102234.84;;;10.14;100.00
2405;BME280;1213;43.206;27.922;2024-02-21T09:03:06;102232.41;;;10.52;100.00
2405;BME280;1213;43.206;27.922;2024-02-21T09:05:31;102226.84;;;10.60;100.00
2405;BME280;1213;43.206;27.922;2024-02-21T09:07:57;102224.66;;;10.69;100.00
2405;BME280;1213;43.206;27.922;2024-02-21T09:10:22;102228.47;;;10.82;100.00
2405;BME280;1213;43.206;27.922;2024-02-21T09:12:47;102219.38;;;10.90;100.00
2405;BME280;1213;43.206;27.922;2024-02-21T09:15:13;102220.25;;;10.90;100.00
2405;BME280;1213;43.206;27.922;2024-02-21T09:17:38;102222.53;;;10.77;100.00
2405;BME280;1213;43.206;27.922;2024-02-21T09:20:05;102226.50;;;10.67;100.00
2405;BME280;1213;43.206;27.922;2024-02-21T09:22:31;102211.50;;;10.69;100.00
2405;BME280;1213;43.206;27.922;2024-02-21T09:25:00;102218.03;;;10.61;100.00
2405;BME280;1213;43.206;27.922;2024-02-21T09:27:25;102222.44;;;10.60;100.00
2405;BME280;1213;43.206;27.922;2024-02-21T09:29:52;102216.09;;;10.64;100.00
2405;BME280;1213;43.206;27.922;2024-02-21T09:32:20;102218.88;;;10.81;100.00
2405;BME280;1213;43.206;27.922;2024-02-21T09:34:45;102216.78;;;11.08;100.00
2405;BME280;1213;43.206;27.922;2024-02-21T09:37:11;102217.38;;;11.53;100.00
2405;BME280;1213;43.206;27.922;2024-02-21T09:39:36;102214.75;;;12.08;100.00
2405;BME280;1213;43.206;27.922;2024-02-21T09:42:06;102215.63;;;12.43;100.00
2405;BME280;1213;43.206;27.922;2024-02-21T09:44:38;102200.25;;;12.68;100.00
2405;BME280;1213;43.206;27.922;2024-02-21T09:47:14;102196.72;;;13.18;100.00
2405;BME280;1213;43.206;27.922;2024-02-21T09:49:43;102187.41;;;13.11;100.00
2405;BME280;1213;43.206;27.922;2024-02-21T09:52:10;102194.53;;;12.93;100.00
2405;BME280;1213;43.206;27.922;2024-02-21T09:54:39;102186.09;;;13.20;100.00
2405;BME280;1213;43.206;27.922;2024-02-21T09:57:07;102184.16;;;13.06;100.00
2405;BME280;1213;43.206;27.922;2024-02-21T09:59:33;102192.13;;;12.56;100.00
2405;BME280;1213;43.206;27.922;2024-02-21T10:01:59;102188.09;;;12.48;100.00
2405;BME280;1213;43.206;27.922;2024-02-21T10:04:27;102182.69;;;12.34;100.00
2405;BME280;1213;43.206;27.922;2024-02-21T10:06:53;102176.88;;;12.28;100.00
2405;BME280;1213;43.206;27.922;2024-02-21T10:09:28;102187.31;;;12.29;100.00
2405;BME280;1213;43.206;27.922;2024-02-21T10:11:55;102174.91;;;12.48;100.00
2405;BME280;1213;43.206;27.922;2024-02-21T10:14:21;102184.47;;;12.34;100.00
2405;BME280;1213;43.206;27.922;2024-02-21T10:16:57;102179.75;;;12.40;100.00
2405;BME280;1213;43.206;27.922;2024-02-21T10:19:26;102171.66;;;12.43;100.00
2405;BME280;1213;43.206;27.922;2024-02-21T10:22:09;102175.22;;;12.42;100.00
2405;BME280;1213;43.206;27.922;2024-02-21T10:24:35;102173.81;;;12.53;100.00
2405;BME280;1213;43.206;27.922;2024-02-21T10:27:05;102172.28;;;12.48;100.00
2405;BME280;1213;43.206;27.922;2024-02-21T10:29:34;102172.13;;;12.34;100.00
2405;BME280;1213;43.206;27.922;2024-02-21T10:32:13;102165.47;;;12.27;100.00
2405;BME280;1213;43.206;27.922;2024-02-21T10:34:40;102160.59;;;12.19;100.00
2405;BME280;1213;43.206;27.922;2024-02-21T10:37:08;102166.69;;;11.85;100.00
2405;BME280;1213;43.206;27.922;2024-02-21T10:39:42;102162.81;;;11.92;100.00
2405;BME280;1213;43.206;27.922;2024-02-21T10:42:13;102160.34;;;11.89;100.00
2405;BME280;1213;43.206;27.922;2024-02-21T10:44:40;102153.47;;;11.87;100.00
2405;BME280;1213;43.206;27.922;2024-02-21T10:47:10;102153.22;;;12.09;100.00
2405;BME280;1213;43.206;27.922;2024-02-21T10:49:40;102160.50;;;12.04;100.00
2405;BME280;1213;43.206;27.922;2024-02-21T10:55:10;102140.38;;;12.03;100.00
2405;BME280;1213;43.206;27.922;2024-02-21T10:57:40;102145.59;;;11.85;100.00
2405;BME280;1213;43.206;27.922;2024-02-21T11:00:07;102141.19;;;12.38;100.00
2405;BME280;1213;43.206;27.922;2024-02-21T11:02:37;102141.06;;;12.41;100.00
2405;BME280;1213;43.206;27.922;2024-02-21T11:05:05;102132.59;;;13.00;100.00
2405;BME280;1213;43.206;27.922;2024-02-21T11:07:32;102133.88;;;13.72;100.00
2405;BME280;1213;43.206;27.922;2024-02-21T11:09:58;102130.38;;;13.72;100.00
2405;BME280;1213;43.206;27.922;2024-02-21T11:12:26;102133.06;;;13.40;100.00
2405;BME280;1213;43.206;27.922;2024-02-21T11:15:12;102126.63;;;12.97;100.00
2405;BME280;1213;43.206;27.922;2024-02-21T11:17:38;102133.94;;;12.59;100.00
2405;BME280;1213;43.206;27.922;2024-02-21T11:20:13;102137.72;;;12.20;100.00
2405;BME280;1213;43.206;27.922;2024-02-21T11:22:42;102137.75;;;12.03;100.00
2405;BME280;1213;43.206;27.922;2024-02-21T11:25:08;102138.84;;;11.80;100.00
2405;BME280;1213;43.206;27.922;2024-02-21T11:27:37;102134.75;;;11.55;100.00
2405;BME280;1213;43.206;27.922;2024-02-21T11:30:05;102138.22;;;11.38;100.00
2405;BME280;1213;43.206;27.922;2024-02-21T11:32:31;102135.97;;;11.12;100.00
2405;BME280;1213;43.206;27.922;2024-02-21T11:35:03;102141.69;;;11.01;100.00
2405;BME280;1213;43.206;27.922;2024-02-21T11:37:31;102137.38;;;11.00;100.00
2405;BME280;1213;43.206;27.922;2024-02-21T11:40:02;102132.81;;;10.85;100.00
2405;BME280;1213;43.206;27.922;2024-02-21T11:42:29;102132.16;;;10.80;100.00
2405;BME280;1213;43.206;27.922;2024-02-21T11:44:56;102133.09;;;10.79;100.00
2405;BME280;1213;43.206;27.922;2024-02-21T11:47:25;102125.44;;;10.74;100.00
2405;BME280;1213;43.206;27.922;2024-02-21T11:49:50;102122.78;;;10.74;100.00
2405;BME280;1213;43.206;27.922;2024-02-21T11:52:21;102123.91;;;10.88;100.00
2405;BME280;1213;43.206;27.922;2024-02-21T11:54:48;102113.16;;;11.13;100.00
2405;BME280;1213;43.206;27.922;2024-02-21T11:59:57;102117.81;;;10.87;100.00
2405;BME280;1213;43.206;27.922;2024-02-21T12:02:23;102116.41;;;10.99;100.00
2405;BME280;1213;43.206;27.922;2024-02-21T12:04:48;102110.34;;;11.16;100.00
2405;BME280;1213;43.206;27.922;2024-02-21T12:07:14;102114.91;;;10.93;100.00
2405;BME280;1213;43.206;27.922;2024-02-21T12:09:43;102111.97;;;11.18;100.00
2405;BME280;1213;43.206;27.922;2024-02-21T12:12:09;102109.06;;;11.24;100.00
2405;BME280;1213;43.206;27.922;2024-02-21T12:14:35;102099.88;;;11.33;100.00
2405;BME280;1213;43.206;27.922;2024-02-21T12:17:02;102100.81;;;11.32;100.00
2405;BME280;1213;43.206;27.922;2024-02-21T12:19:32;102098.03;;;11.35;100.00
2405;BME280;1213;43.206;27.922;2024-02-21T12:21:59;102097.19;;;11.34;100.00
2405;BME280;1213;43.206;27.922;2024-02-21T12:24:26;102100.00;;;11.49;100.00
2405;BME280;1213;43.206;27.922;2024-02-21T12:26:53;102089.53;;;11.47;100.00
2405;BME280;1213;43.206;27.922;2024-02-21T12:29:19;102085.97;;;11.48;100.00
2405;BME280;1213;43.206;27.922;2024-02-21T12:31:45;102082.59;;;11.63;100.00
2405;BME280;1213;43.206;27.922;2024-02-21T12:34:10;102082.25;;;11.88;100.00
2405;BME280;1213;43.206;27.922;2024-02-21T12:36:41;102087.50;;;12.23;100.00
2405;BME280;1213;43.206;27.922;2024-02-21T12:39:07;102076.63;;;12.29;100.00
2405;BME280;1213;43.206;27.922;2024-02-21T12:41:34;102077.34;;;12.15;100.00
2405;BME280;1213;43.206;27.922;2024-02-21T12:44:00;102076.34;;;12.01;100.00
2405;BME280;1213;43.206;27.922;2024-02-21T12:46:26;102074.00;;;11.60;100.00
2405;BME280;1213;43.206;27.922;2024-02-21T12:48:51;102079.00;;;11.47;100.00
2405;BME280;1213;43.206;27.922;2024-02-21T12:51:17;102083.09;;;11.35;100.00
2405;BME280;1213;43.206;27.922;2024-02-21T12:53:49;102082.47;;;11.30;100.00
2405;BME280;1213;43.206;27.922;2024-02-21T12:56:15;102084.50;;;11.06;100.00
2405;BME280;1213;43.206;27.922;2024-02-21T12:58:41;102079.22;;;10.88;100.00
2405;BME280;1213;43.206;27.922;2024-02-21T13:01:06;102084.84;;;10.61;100.00